createdAt,value
2019-04-03T00:00:21.114Z,17.20
2019-04-03T00:01:21.110Z,17.40
2019-04-03T00:02:21.094Z,17.40
2019-04-03T00:03:21.080Z,19.60
2019-04-03T00:04:21.071Z,17.50
2019-04-03T00:05:21.061Z,16.70
2019-04-03T00:06:21.049Z,20.60
2019-04-03T00:07:21.082Z,14.90
2019-04-03T00:08:21.030Z,17.30
2019-04-03T00:09:21.160Z,17.80
2019-04-03T00:10:21.007Z,15.10
2019-04-03T00:11:20.995Z,20.70
2019-04-03T00:12:20.985Z,16.80
2019-04-03T00:13:20.975Z,17.40
2019-04-03T00:14:20.965Z,16.00
2019-04-03T00:15:20.953Z,19.80
2019-04-03T00:16:20.961Z,16.40
2019-04-03T00:17:21.038Z,18.20
2019-04-03T00:18:20.920Z,18.80
2019-04-03T00:19:20.910Z,17.40
2019-04-03T00:20:20.899Z,15.20
2019-04-03T00:21:20.983Z,16.80
2019-04-03T00:22:21.992Z,15.40
2019-04-03T00:23:22.375Z,16.20
2019-04-03T00:24:22.684Z,16.10
2019-04-03T00:25:22.300Z,16.10
2019-04-03T00:26:22.563Z,16.70
2019-04-03T00:27:22.325Z,18.60
2019-04-03T00:28:22.375Z,17.60
2019-04-03T00:29:22.665Z,17.10
2019-04-03T00:30:22.511Z,16.90
2019-04-03T00:31:21.598Z,19.50
2019-04-03T00:32:21.811Z,17.90
2019-04-03T00:33:22.961Z,16.50
2019-04-03T00:34:23.008Z,15.20
2019-04-03T00:35:23.143Z,19.10
2019-04-03T00:36:21.626Z,15.40
2019-04-03T00:37:22.819Z,18.90
2019-04-03T00:38:20.710Z,20.50
2019-04-03T00:39:20.698Z,15.10
2019-04-03T00:40:20.781Z,17.80
2019-04-03T00:41:20.677Z,16.80
2019-04-03T00:42:20.662Z,17.50
2019-04-03T00:43:20.654Z,15.40
2019-04-03T00:44:20.643Z,17.40
2019-04-03T00:45:20.631Z,18.90
2019-04-03T00:46:20.727Z,18.00
2019-04-03T00:47:20.614Z,15.30
2019-04-03T00:48:20.601Z,17.00
2019-04-03T00:49:20.589Z,21.00
2019-04-03T00:50:20.576Z,17.40
2019-04-03T00:51:20.567Z,16.50
2019-04-03T00:52:20.555Z,13.80
2019-04-03T00:53:20.545Z,18.10
2019-04-03T00:54:20.533Z,16.50
2019-04-03T00:55:20.523Z,17.30
2019-04-03T00:56:20.511Z,17.30
2019-04-03T00:57:20.582Z,16.20
2019-04-03T00:58:20.490Z,18.70
2019-04-03T00:59:20.480Z,20.80
2019-04-03T01:00:20.623Z,15.70
2019-04-03T01:01:20.458Z,17.50
2019-04-03T01:02:20.447Z,17.10
2019-04-03T01:03:20.448Z,16.90
2019-04-03T01:04:20.426Z,19.10
2019-04-03T01:05:20.419Z,18.70
2019-04-03T01:06:20.512Z,17.20
2019-04-03T01:07:20.398Z,17.80
2019-04-03T01:08:20.382Z,20.20
2019-04-03T01:09:20.373Z,17.70
2019-04-03T01:10:20.362Z,17.20
2019-04-03T01:11:20.353Z,14.10
2019-04-03T01:12:20.341Z,18.20
2019-04-03T01:13:20.329Z,18.30
2019-04-03T01:14:20.318Z,19.70
2019-04-03T01:15:20.309Z,18.30
2019-04-03T01:16:20.297Z,18.40
2019-04-03T01:17:20.286Z,15.90
2019-04-03T01:18:20.278Z,18.70
2019-04-03T01:19:20.265Z,17.10
2019-04-03T01:20:20.254Z,18.70
2019-04-03T01:21:20.246Z,14.60
2019-04-03T01:22:20.344Z,16.80
2019-04-03T01:23:20.222Z,16.20
2019-04-03T01:24:20.211Z,16.90
2019-04-03T01:25:20.204Z,15.90
2019-04-03T01:26:20.196Z,17.30
2019-04-03T01:27:20.180Z,15.70
2019-04-03T01:28:20.170Z,16.00
2019-04-03T01:29:20.157Z,17.60
2019-04-03T01:30:20.146Z,17.60
2019-04-03T01:31:20.137Z,17.20
2019-04-03T01:32:20.126Z,18.80
2019-04-03T01:33:20.124Z,16.80
2019-04-03T01:34:20.105Z,18.30
2019-04-03T01:35:20.093Z,19.20
2019-04-03T01:36:20.107Z,16.80
2019-04-03T01:37:20.078Z,17.20
2019-04-03T01:38:20.063Z,16.00
2019-04-03T01:39:21.024Z,16.50
2019-04-03T01:40:20.893Z,15.80
2019-04-03T01:41:21.232Z,18.10
2019-04-03T01:42:22.351Z,19.10
2019-04-03T01:43:20.014Z,19.30
2019-04-03T01:44:19.997Z,17.30
2019-04-03T01:45:19.985Z,17.00
2019-04-03T01:46:20.268Z,16.10
2019-04-03T01:47:19.998Z,17.90
2019-04-03T01:48:19.955Z,17.60
2019-04-03T01:49:19.943Z,17.30
2019-04-03T01:50:19.938Z,13.60
2019-04-03T01:51:19.923Z,16.20
2019-04-03T01:52:19.910Z,17.30
2019-04-03T01:53:19.899Z,17.20
2019-04-03T01:54:19.890Z,19.70
2019-04-03T01:55:19.878Z,17.30
2019-04-03T01:56:19.871Z,19.40
2019-04-03T01:57:19.865Z,16.70
2019-04-03T01:58:19.849Z,18.00
2019-04-03T01:59:19.840Z,16.60
2019-04-03T02:00:19.831Z,17.80
2019-04-03T02:01:19.815Z,15.00
2019-04-03T02:02:19.804Z,17.20
2019-04-03T02:03:19.796Z,17.90
2019-04-03T02:04:19.783Z,15.30
2019-04-03T02:05:19.771Z,15.90
2019-04-03T02:06:19.762Z,17.70
2019-04-03T02:07:19.748Z,18.50
2019-04-03T02:08:19.740Z,19.40
2019-04-03T02:09:19.728Z,18.70
2019-04-03T02:10:19.884Z,19.90
2019-04-03T02:11:19.706Z,16.80
2019-04-03T02:12:20.422Z,15.00
2019-04-03T02:13:21.045Z,18.00
2019-04-03T02:14:21.808Z,17.50
2019-04-03T02:15:21.681Z,18.70
2019-04-03T02:16:19.651Z,19.70
2019-04-03T02:17:19.642Z,18.30
2019-04-03T02:18:19.632Z,18.60
2019-04-03T02:19:19.620Z,20.60
2019-04-03T02:20:19.613Z,18.30
2019-04-03T02:21:19.648Z,17.80
2019-04-03T02:22:19.587Z,17.40
2019-04-03T02:23:19.577Z,19.00
2019-04-03T02:24:19.568Z,20.20
2019-04-03T02:25:19.618Z,19.40
2019-04-03T02:26:19.666Z,16.00
2019-04-03T02:27:19.541Z,21.10
2019-04-03T02:28:19.528Z,18.30
2019-04-03T02:29:19.517Z,16.30
2019-04-03T02:30:19.510Z,19.10
2019-04-03T02:31:20.226Z,18.10
2019-04-03T02:32:19.484Z,17.70
2019-04-03T02:33:19.550Z,21.30
2019-04-03T02:34:19.462Z,20.30
2019-04-03T02:35:19.450Z,16.90
2019-04-03T02:36:19.446Z,20.30
2019-04-03T02:37:19.706Z,18.00
2019-04-03T02:38:22.540Z,19.30
2019-04-03T02:39:19.406Z,18.00
2019-04-03T02:40:19.416Z,19.60
2019-04-03T02:41:19.391Z,20.40
2019-04-03T02:42:19.411Z,17.30
2019-04-03T02:43:19.366Z,19.50
2019-04-03T02:44:20.047Z,20.20
2019-04-03T02:45:22.746Z,21.40
2019-04-03T02:46:19.418Z,18.50
2019-04-03T02:47:19.609Z,21.20
2019-04-03T02:48:19.360Z,16.00
2019-04-03T02:49:19.304Z,19.10
2019-04-03T02:50:19.291Z,16.20
2019-04-03T02:51:20.471Z,19.80
2019-04-03T02:52:19.269Z,19.90
2019-04-03T02:53:19.258Z,18.80
2019-04-03T02:54:19.247Z,20.60
2019-04-03T02:55:19.233Z,18.50
2019-04-03T02:56:19.399Z,18.20
2019-04-03T02:57:19.214Z,16.70
2019-04-03T02:58:21.944Z,18.00
2019-04-03T02:59:19.196Z,18.00
2019-04-03T03:00:19.508Z,17.70
2019-04-03T03:01:19.172Z,20.70
2019-04-03T03:02:19.160Z,17.30
2019-04-03T03:03:19.150Z,19.10
2019-04-03T03:04:21.532Z,20.80
2019-04-03T03:05:19.129Z,18.80
2019-04-03T03:06:19.373Z,21.90
2019-04-03T03:07:19.111Z,19.80
2019-04-03T03:08:22.178Z,17.80
2019-04-03T03:09:19.083Z,19.20
2019-04-03T03:10:20.256Z,21.50
2019-04-03T03:11:19.062Z,17.90
2019-04-03T03:12:19.135Z,17.60
2019-04-03T03:13:19.042Z,19.40
2019-04-03T03:14:19.034Z,17.30
2019-04-03T03:15:19.063Z,17.50
2019-04-03T03:16:19.389Z,20.50
2019-04-03T03:17:21.511Z,24.40
2019-04-03T03:18:18.995Z,20.30
2019-04-03T03:19:18.978Z,18.00
2019-04-03T03:20:18.966Z,20.00
2019-04-03T03:21:18.975Z,19.90
2019-04-03T03:22:19.091Z,21.00
2019-04-03T03:23:22.450Z,22.00
2019-04-03T03:24:18.924Z,19.90
2019-04-03T03:25:18.913Z,19.50
2019-04-03T03:26:18.901Z,20.70
2019-04-03T03:27:18.897Z,21.50
2019-04-03T03:28:18.879Z,20.60
2019-04-03T03:29:23.985Z,20.70
2019-04-03T03:30:36.079Z,19.30
2019-04-03T03:31:44.533Z,20.80
2019-04-03T03:32:28.907Z,24.70
2019-04-03T03:33:30.072Z,20.30
2019-04-03T03:34:43.752Z,21.30
2019-04-03T03:35:28.050Z,23.30
2019-04-03T03:36:24.030Z,21.50
2019-04-03T03:37:19.873Z,20.80
2019-04-03T03:38:18.774Z,22.00
2019-04-03T03:39:18.767Z,19.40
2019-04-03T03:40:18.757Z,19.70
2019-04-03T03:41:21.971Z,23.50
2019-04-03T03:42:18.728Z,21.90
2019-04-03T03:43:18.774Z,19.70
2019-04-03T03:44:18.709Z,25.00
2019-04-03T03:45:20.576Z,24.10
2019-04-03T03:46:18.686Z,20.60
2019-04-03T03:47:18.677Z,21.20
2019-04-03T03:48:18.669Z,20.90
2019-04-03T03:49:18.897Z,21.10
2019-04-03T03:50:22.405Z,18.30
2019-04-03T03:51:19.629Z,22.30
2019-04-03T03:52:18.683Z,21.20
2019-04-03T03:53:18.616Z,23.90
2019-04-03T03:54:19.198Z,20.20
2019-04-03T03:55:22.875Z,21.30
2019-04-03T03:56:19.578Z,20.70
2019-04-03T03:57:18.739Z,20.60
2019-04-03T03:58:18.561Z,18.10
2019-04-03T03:59:18.999Z,21.20
2019-04-03T04:00:22.629Z,22.50
2019-04-03T04:01:18.867Z,20.20
2019-04-03T04:02:18.596Z,21.10
2019-04-03T04:03:18.506Z,22.00
2019-04-03T04:04:18.606Z,20.40
2019-04-03T04:05:21.313Z,21.70
2019-04-03T04:06:18.476Z,23.50
2019-04-03T04:07:18.464Z,22.20
2019-04-03T04:08:18.450Z,22.40
2019-04-03T04:09:18.671Z,22.10
2019-04-03T04:10:18.581Z,20.80
2019-04-03T04:11:18.693Z,23.60
2019-04-03T04:12:18.499Z,21.90
2019-04-03T04:13:18.395Z,19.60
2019-04-03T04:14:20.781Z,20.70
2019-04-03T04:15:18.372Z,22.10
2019-04-03T04:16:18.429Z,21.70
2019-04-03T04:17:19.029Z,20.20
2019-04-03T04:18:18.436Z,21.30
2019-04-03T04:19:18.334Z,22.50
2019-04-03T04:20:18.631Z,20.80
2019-04-03T04:21:18.321Z,22.20
2019-04-03T04:22:19.110Z,23.80
2019-04-03T04:23:18.670Z,18.50
2019-04-03T04:24:18.276Z,21.00
2019-04-03T04:25:18.770Z,23.70
2019-04-03T04:26:18.256Z,22.20
2019-04-03T04:27:18.245Z,22.50
2019-04-03T04:28:18.234Z,25.30
2019-04-03T04:29:18.380Z,21.20
2019-04-03T04:30:18.212Z,20.30
2019-04-03T04:31:18.426Z,21.00
2019-04-03T04:32:18.192Z,22.30
2019-04-03T04:33:18.731Z,23.50
2019-04-03T04:34:18.822Z,22.10
2019-04-03T04:35:20.802Z,22.60
2019-04-03T04:36:18.238Z,24.30
2019-04-03T04:37:18.137Z,23.10
2019-04-03T04:38:18.130Z,22.70
2019-04-03T04:39:18.331Z,22.50
2019-04-03T04:40:18.104Z,25.60
2019-04-03T04:41:18.167Z,24.90
2019-04-03T04:42:18.082Z,22.20
2019-04-03T04:43:18.075Z,24.30
2019-04-03T04:44:18.064Z,24.70
2019-04-03T04:45:18.051Z,26.40
2019-04-03T04:46:18.042Z,21.20
2019-04-03T04:47:18.030Z,25.70
2019-04-03T04:48:20.121Z,23.80
2019-04-03T04:49:18.024Z,22.20
2019-04-03T04:50:17.998Z,22.60
2019-04-03T04:51:17.987Z,24.30
2019-04-03T04:52:18.096Z,27.40
2019-04-03T04:53:17.965Z,23.30
2019-04-03T04:54:17.953Z,23.60
2019-04-03T04:55:17.977Z,27.70
2019-04-03T04:56:17.933Z,23.10
2019-04-03T04:57:17.925Z,24.80
2019-04-03T04:58:17.910Z,23.40
2019-04-03T04:59:18.056Z,27.60
2019-04-03T05:00:17.890Z,23.30
2019-04-03T05:01:18.276Z,27.80
2019-04-03T05:02:19.738Z,22.50
2019-04-03T05:03:17.858Z,23.20
2019-04-03T05:04:18.012Z,20.30
2019-04-03T05:05:17.837Z,24.30
2019-04-03T05:06:18.029Z,23.10
2019-04-03T05:07:17.814Z,23.80
2019-04-03T05:08:17.924Z,23.50
2019-04-03T05:09:17.926Z,20.00
2019-04-03T05:10:18.113Z,23.30
2019-04-03T05:11:17.776Z,26.60
2019-04-03T05:12:17.764Z,22.90
2019-04-03T05:13:17.864Z,23.70
2019-04-03T05:14:18.308Z,24.20
2019-04-03T05:15:19.580Z,20.30
2019-04-03T05:16:20.460Z,26.30
2019-04-03T05:17:17.706Z,23.20
2019-04-03T05:18:17.697Z,21.20
2019-04-03T05:19:19.376Z,23.90
2019-04-03T05:20:19.483Z,23.60
2019-04-03T05:21:17.724Z,25.30
2019-04-03T05:22:17.653Z,26.00
2019-04-03T05:23:17.646Z,24.30
2019-04-03T05:24:17.659Z,21.80
2019-04-03T05:25:17.629Z,24.60
2019-04-03T05:26:17.716Z,24.10
2019-04-03T05:27:17.862Z,23.40
2019-04-03T05:28:17.623Z,24.20
2019-04-03T05:29:17.577Z,27.20
2019-04-03T05:30:20.319Z,24.90
2019-04-03T05:31:17.558Z,27.20
2019-04-03T05:32:17.589Z,26.90
2019-04-03T05:33:17.534Z,28.70
2019-04-03T05:34:17.703Z,26.50
2019-04-03T05:35:17.511Z,24.30
2019-04-03T05:36:18.331Z,23.70
2019-04-03T05:37:18.066Z,22.00
2019-04-03T05:38:17.711Z,27.60
2019-04-03T05:39:17.469Z,23.20
2019-04-03T05:40:17.462Z,23.20
2019-04-03T05:41:17.446Z,27.70
2019-04-03T05:42:17.438Z,23.30
2019-04-03T05:43:17.429Z,25.20
2019-04-03T05:44:17.417Z,24.50
2019-04-03T05:45:17.407Z,21.70
2019-04-03T05:46:19.198Z,24.50
2019-04-03T05:47:17.387Z,21.50
2019-04-03T05:48:18.412Z,25.60
2019-04-03T05:49:19.042Z,23.10
2019-04-03T05:50:17.355Z,23.60
2019-04-03T05:51:17.341Z,24.70
2019-04-03T05:52:17.331Z,26.50
2019-04-03T05:53:17.324Z,26.40
2019-04-03T05:54:17.308Z,24.00
2019-04-03T05:55:17.299Z,24.90
2019-04-03T05:56:17.350Z,25.50
2019-04-03T05:57:17.360Z,21.60
2019-04-03T05:58:17.376Z,23.30
2019-04-03T05:59:17.256Z,23.40
2019-04-03T06:00:17.258Z,23.80
2019-04-03T06:01:17.239Z,25.40
2019-04-03T06:02:20.404Z,23.20
2019-04-03T06:03:17.213Z,21.90
2019-04-03T06:04:17.217Z,22.10
2019-04-03T06:05:19.288Z,26.50
2019-04-03T06:06:17.321Z,24.60
2019-04-03T06:07:18.243Z,24.60
2019-04-03T06:08:19.324Z,21.60
2019-04-03T06:09:17.150Z,28.60
2019-04-03T06:10:17.138Z,27.40
2019-04-03T06:11:17.126Z,24.30
2019-04-03T06:12:19.094Z,20.90
2019-04-03T06:13:17.622Z,23.00
2019-04-03T06:14:19.021Z,22.10
2019-04-03T06:15:17.329Z,23.70
2019-04-03T06:16:17.222Z,24.50
2019-04-03T06:17:17.061Z,26.10
2019-04-03T06:18:17.737Z,24.10
2019-04-03T06:19:17.043Z,27.10
2019-04-03T06:20:17.030Z,23.40
2019-04-03T06:21:17.021Z,26.10
2019-04-03T06:22:19.773Z,22.80
2019-04-03T06:23:16.997Z,22.70
2019-04-03T06:24:18.083Z,27.20
2019-04-03T06:25:16.977Z,21.70
2019-04-03T06:26:16.965Z,24.00
2019-04-03T06:27:19.362Z,28.20
2019-04-03T06:28:16.995Z,23.80
2019-04-03T06:29:18.983Z,24.10
2019-04-03T06:30:16.923Z,24.60
2019-04-03T06:31:16.911Z,23.00
2019-04-03T06:32:17.020Z,24.60
2019-04-03T06:33:17.037Z,23.30
2019-04-03T06:34:16.883Z,23.70
2019-04-03T06:35:16.868Z,25.00
2019-04-03T06:36:17.967Z,23.60
2019-04-03T06:37:16.931Z,27.20
2019-04-03T06:38:17.044Z,20.60
2019-04-03T06:39:16.829Z,23.00
2019-04-03T06:40:16.814Z,23.60
2019-04-03T06:41:16.803Z,24.20
2019-04-03T06:42:16.797Z,22.10
2019-04-03T06:43:17.326Z,24.50
2019-04-03T06:44:16.771Z,21.70
2019-04-03T06:45:16.845Z,23.40
2019-04-03T06:46:17.000Z,24.70
2019-04-03T06:47:16.740Z,23.20
2019-04-03T06:48:16.729Z,25.60
2019-04-03T06:49:16.717Z,23.00
2019-04-03T06:50:17.552Z,21.80
2019-04-03T06:51:16.913Z,22.40
2019-04-03T06:52:16.685Z,24.20
2019-04-03T06:53:16.676Z,20.30
2019-04-03T06:54:16.741Z,23.60
2019-04-03T06:55:16.654Z,24.60
2019-04-03T06:56:16.643Z,23.10
2019-04-03T06:57:16.631Z,24.20
2019-04-03T06:58:16.621Z,24.80
2019-04-03T06:59:17.124Z,23.70
2019-04-03T07:00:16.676Z,22.00
2019-04-03T07:01:18.067Z,22.90
2019-04-03T07:02:16.765Z,22.60
2019-04-03T07:03:16.567Z,24.10
2019-04-03T07:04:16.756Z,22.60
2019-04-03T07:05:16.545Z,24.70
2019-04-03T07:06:16.537Z,21.10
2019-04-03T07:07:31.754Z,22.70
2019-04-03T07:08:28.660Z,23.20
2019-04-03T07:09:24.010Z,24.10
2019-04-03T07:10:25.392Z,23.50
2019-04-03T07:11:23.302Z,22.90
2019-04-03T07:12:17.497Z,23.30
2019-04-03T07:13:16.482Z,22.30
2019-04-03T07:14:16.452Z,22.50
2019-04-03T07:15:16.625Z,21.90
2019-04-03T07:16:16.425Z,24.30
2019-04-03T07:17:16.421Z,25.50
2019-04-03T07:18:16.404Z,24.30
2019-04-03T07:19:16.732Z,24.70
2019-04-03T07:20:19.354Z,22.60
2019-04-03T07:21:16.378Z,22.60
2019-04-03T07:22:16.365Z,24.00
2019-04-03T07:23:16.359Z,23.00
2019-04-03T07:24:16.560Z,25.10
2019-04-03T07:25:16.330Z,23.90
2019-04-03T07:26:16.331Z,25.40
2019-04-03T07:27:16.540Z,25.00
2019-04-03T07:28:16.543Z,21.60
2019-04-03T07:29:17.227Z,25.40
2019-04-03T07:30:17.666Z,25.70
2019-04-03T07:31:16.480Z,23.50
2019-04-03T07:32:16.252Z,24.40
2019-04-03T07:33:16.518Z,22.40
2019-04-03T07:34:16.369Z,21.20
2019-04-03T07:35:16.224Z,22.40
2019-04-03T07:36:16.210Z,23.00
2019-04-03T07:37:18.830Z,24.90
2019-04-03T07:38:16.190Z,23.90
2019-04-03T07:39:16.980Z,21.30
2019-04-03T07:40:16.167Z,25.20
2019-04-03T07:41:16.256Z,23.80
2019-04-03T07:42:16.177Z,21.90
2019-04-03T07:43:16.134Z,22.20
2019-04-03T07:44:16.123Z,21.90
2019-04-03T07:45:16.112Z,24.10
2019-04-03T07:46:16.103Z,22.90
2019-04-03T07:47:16.191Z,23.50
2019-04-03T07:48:16.184Z,21.80
2019-04-03T07:49:16.069Z,21.80
2019-04-03T07:50:16.057Z,21.20
2019-04-03T07:51:16.140Z,23.50
2019-04-03T07:52:16.839Z,24.20
2019-04-03T07:53:16.030Z,19.70
2019-04-03T07:54:16.015Z,22.10
2019-04-03T07:55:16.011Z,20.40
2019-04-03T07:56:15.994Z,24.50
2019-04-03T07:57:16.707Z,24.40
2019-04-03T07:58:15.972Z,23.30
2019-04-03T07:59:16.105Z,23.10
2019-04-03T08:00:15.953Z,24.50
2019-04-03T08:01:18.441Z,22.00
2019-04-03T08:02:15.953Z,22.30
2019-04-03T08:03:15.919Z,27.10
2019-04-03T08:04:16.672Z,21.40
2019-04-03T08:05:15.911Z,23.30
2019-04-03T08:06:15.893Z,23.10
2019-04-03T08:07:15.881Z,22.30
2019-04-03T08:08:15.864Z,22.90
2019-04-03T08:09:15.856Z,21.60
2019-04-03T08:10:15.845Z,23.70
2019-04-03T08:11:15.835Z,22.10
2019-04-03T08:12:17.773Z,24.70
2019-04-03T08:13:15.827Z,23.60
2019-04-03T08:14:15.801Z,22.20
2019-04-03T08:15:15.793Z,22.30
2019-04-03T08:16:16.607Z,20.00
2019-04-03T08:17:16.684Z,25.70
2019-04-03T08:18:15.759Z,21.50
2019-04-03T08:19:15.746Z,19.90
2019-04-03T08:20:15.737Z,21.80
2019-04-03T08:21:15.884Z,22.40
2019-04-03T08:22:15.716Z,20.90
2019-04-03T08:23:15.707Z,22.80
2019-04-03T08:24:15.695Z,22.80
2019-04-03T08:25:15.684Z,22.80
2019-04-03T08:26:18.365Z,22.50
2019-04-03T08:27:15.673Z,22.50
2019-04-03T08:28:15.652Z,22.50
2019-04-03T08:29:15.640Z,24.70
2019-04-03T08:30:15.750Z,19.40
2019-04-03T08:31:15.621Z,21.80
2019-04-03T08:32:16.678Z,21.00
2019-04-03T08:33:18.313Z,22.20
2019-04-03T08:34:18.566Z,20.00
2019-04-03T08:35:22.436Z,19.60
2019-04-03T08:36:24.008Z,23.60
2019-04-03T08:37:28.516Z,21.10
2019-04-03T08:38:16.557Z,20.20
2019-04-03T08:39:16.460Z,23.10
2019-04-03T08:40:15.527Z,20.70
2019-04-03T08:41:15.514Z,22.30
2019-04-03T08:42:15.502Z,25.80
2019-04-03T08:43:15.496Z,21.30
2019-04-03T08:44:15.549Z,23.10
2019-04-03T08:45:15.484Z,20.70
2019-04-03T08:46:15.463Z,21.00
2019-04-03T08:47:15.451Z,22.00
2019-04-03T08:48:17.493Z,21.70
2019-04-03T08:49:15.429Z,19.20
2019-04-03T08:50:15.536Z,26.30
2019-04-03T08:51:15.452Z,20.80
2019-04-03T08:52:15.720Z,22.00
2019-04-03T08:53:15.664Z,19.00
2019-04-03T08:54:15.377Z,20.40
2019-04-03T08:55:15.371Z,19.90
2019-04-03T08:56:17.134Z,20.00
2019-04-03T08:57:15.346Z,19.60
2019-04-03T08:58:15.337Z,21.30
2019-04-03T08:59:15.326Z,19.40
2019-04-03T09:00:15.316Z,20.60
2019-04-03T09:01:15.305Z,19.00
2019-04-03T09:02:15.294Z,19.40
2019-04-03T09:03:15.366Z,21.90
2019-04-03T09:04:16.784Z,19.90
2019-04-03T09:05:15.274Z,22.30
2019-04-03T09:06:15.251Z,20.50
2019-04-03T09:07:15.244Z,18.90
2019-04-03T09:08:15.234Z,23.90
2019-04-03T09:09:15.223Z,22.30
2019-04-03T09:10:15.209Z,23.80
2019-04-03T09:11:15.286Z,18.10
2019-04-03T09:12:15.186Z,19.70
2019-04-03T09:13:17.385Z,17.90
2019-04-03T09:14:15.169Z,20.10
2019-04-03T09:15:15.156Z,19.30
2019-04-03T09:16:15.318Z,21.50
2019-04-03T09:17:15.134Z,21.50
2019-04-03T09:18:15.151Z,18.40
2019-04-03T09:19:17.109Z,20.50
2019-04-03T09:20:15.319Z,19.40
2019-04-03T09:21:16.022Z,21.50
2019-04-03T09:22:15.422Z,19.30
2019-04-03T09:23:15.071Z,19.60
2019-04-03T09:24:15.063Z,19.70
2019-04-03T09:25:15.361Z,18.00
2019-04-03T09:26:15.367Z,21.20
2019-04-03T09:27:15.032Z,22.40
2019-04-03T09:28:15.116Z,17.80
2019-04-03T09:29:15.011Z,18.80
2019-04-03T09:30:16.192Z,20.00
2019-04-03T09:31:14.988Z,19.50
2019-04-03T09:32:14.985Z,17.50
2019-04-03T09:33:14.967Z,19.60
2019-04-03T09:34:15.101Z,19.60
2019-04-03T09:35:14.948Z,18.00
2019-04-03T09:36:14.938Z,19.80
2019-04-03T09:37:17.564Z,19.20
2019-04-03T09:38:15.197Z,16.80
2019-04-03T09:39:15.108Z,17.20
2019-04-03T09:40:17.232Z,16.60
2019-04-03T09:41:15.290Z,18.20
2019-04-03T09:42:14.880Z,18.50
2019-04-03T09:43:14.866Z,19.20
2019-04-03T09:44:14.862Z,16.60
2019-04-03T09:45:15.103Z,15.90
2019-04-03T09:46:14.844Z,18.50
2019-04-03T09:47:14.824Z,17.80
2019-04-03T09:48:14.814Z,16.20
2019-04-03T09:49:14.805Z,17.10
2019-04-03T09:50:15.248Z,16.70
2019-04-03T09:51:16.046Z,16.50
2019-04-03T09:52:15.126Z,16.10
2019-04-03T09:53:14.945Z,16.90
2019-04-03T09:54:14.754Z,16.50
2019-04-03T09:55:14.742Z,16.20
2019-04-03T09:56:14.739Z,17.00
2019-04-03T09:57:14.723Z,16.50
2019-04-03T09:58:14.856Z,17.70
2019-04-03T09:59:15.863Z,20.00
2019-04-03T10:00:14.790Z,18.70
2019-04-03T10:01:18.270Z,17.40
2019-04-03T10:02:14.677Z,19.40
2019-04-03T10:03:14.901Z,20.50
2019-04-03T10:04:14.679Z,18.70
2019-04-03T10:05:14.645Z,18.90
2019-04-03T10:06:14.632Z,18.90
2019-04-03T10:07:14.623Z,16.30
2019-04-03T10:08:14.706Z,19.50
2019-04-03T10:09:14.607Z,18.10
2019-04-03T10:10:16.524Z,15.80
2019-04-03T10:11:15.656Z,16.80
2019-04-03T10:12:14.756Z,16.00
2019-04-03T10:13:14.580Z,18.50
2019-04-03T10:14:14.558Z,17.30
2019-04-03T10:15:17.598Z,17.80
2019-04-03T10:16:16.551Z,15.60
2019-04-03T10:17:14.526Z,18.30
2019-04-03T10:18:14.514Z,17.10
2019-04-03T10:19:14.757Z,16.20
2019-04-03T10:20:15.071Z,13.90
2019-04-03T10:21:14.637Z,15.10
2019-04-03T10:22:14.473Z,15.30
2019-04-03T10:23:14.466Z,16.40
2019-04-03T10:24:14.455Z,16.10
2019-04-03T10:25:14.445Z,16.10
2019-04-03T10:26:14.440Z,19.40
2019-04-03T10:27:14.499Z,14.70
2019-04-03T10:28:15.333Z,15.00
2019-04-03T10:29:14.407Z,17.20
2019-04-03T10:30:14.394Z,17.00
2019-04-03T10:31:14.387Z,19.50
2019-04-03T10:32:14.379Z,15.90
2019-04-03T10:33:14.367Z,18.10
2019-04-03T10:34:14.827Z,15.10
2019-04-03T10:35:14.346Z,15.00
2019-04-03T10:36:17.268Z,14.40
2019-04-03T10:37:15.198Z,17.90
2019-04-03T10:38:14.352Z,14.40
2019-04-03T10:39:14.510Z,15.90
2019-04-03T10:40:14.297Z,14.70
2019-04-03T10:41:14.288Z,14.40
2019-04-03T10:42:14.604Z,15.30
2019-04-03T10:43:14.303Z,15.60
2019-04-03T10:44:14.257Z,15.00
2019-04-03T10:45:14.247Z,14.90
2019-04-03T10:46:14.275Z,13.60
2019-04-03T10:47:14.225Z,16.80
2019-04-03T10:48:14.443Z,15.00
2019-04-03T10:49:14.206Z,16.00
2019-04-03T10:50:14.199Z,16.30
2019-04-03T10:51:14.227Z,15.80
2019-04-03T10:52:14.459Z,16.80
2019-04-03T10:53:14.438Z,16.00
2019-04-03T10:54:14.186Z,16.10
2019-04-03T10:55:14.146Z,14.60
2019-04-03T10:56:14.425Z,18.60
2019-04-03T10:57:14.125Z,14.70
2019-04-03T10:58:14.115Z,14.90
2019-04-03T10:59:17.979Z,15.70
2019-04-03T11:00:14.539Z,16.40
2019-04-03T11:01:14.381Z,16.60
2019-04-03T11:02:14.142Z,13.90
2019-04-03T11:03:14.166Z,15.20
2019-04-03T11:04:14.187Z,15.10
2019-04-03T11:05:14.043Z,16.90
2019-04-03T11:06:14.035Z,16.30
2019-04-03T11:07:14.026Z,16.60
2019-04-03T11:08:14.019Z,16.30
2019-04-03T11:09:14.001Z,14.90
2019-04-03T11:10:13.993Z,14.00
2019-04-03T11:11:13.981Z,15.50
2019-04-03T11:12:13.978Z,11.90
2019-04-03T11:13:13.962Z,16.90
2019-04-03T11:14:14.066Z,15.00
2019-04-03T11:15:13.941Z,14.50
2019-04-03T11:16:15.103Z,15.40
2019-04-03T11:17:13.924Z,14.90
2019-04-03T11:18:13.911Z,18.00
2019-04-03T11:19:13.902Z,15.90
2019-04-03T11:20:14.095Z,14.60
2019-04-03T11:21:13.881Z,16.90
2019-04-03T11:22:16.248Z,14.50
2019-04-03T11:23:14.141Z,14.90
2019-04-03T11:24:13.850Z,16.40
2019-04-03T11:25:15.275Z,15.50
2019-04-03T11:26:13.883Z,14.40
2019-04-03T11:27:14.110Z,13.90
2019-04-03T11:28:14.140Z,17.10
2019-04-03T11:29:13.885Z,15.80
2019-04-03T11:30:17.018Z,16.00
2019-04-03T11:31:24.859Z,16.90
2019-04-03T11:32:15.085Z,15.80
2019-04-03T11:33:14.111Z,15.00
2019-04-03T11:34:17.167Z,16.60
2019-04-03T11:35:13.848Z,14.40
2019-04-03T11:36:13.729Z,15.20
2019-04-03T11:37:13.884Z,13.90
2019-04-03T11:38:20.810Z,14.00
2019-04-03T11:39:16.115Z,15.40
2019-04-03T11:40:13.877Z,15.00
2019-04-03T11:41:18.133Z,17.30
2019-04-03T11:42:24.029Z,19.10
2019-04-03T11:43:14.671Z,14.20
2019-04-03T11:44:13.899Z,17.00
2019-04-03T11:45:13.728Z,16.50
2019-04-03T11:46:13.875Z,15.90
2019-04-03T11:47:14.120Z,14.20
2019-04-03T11:48:16.420Z,16.40
2019-04-03T11:49:13.606Z,14.40
2019-04-03T11:50:13.587Z,15.20
2019-04-03T11:51:13.578Z,17.70
2019-04-03T11:52:13.568Z,13.70
2019-04-03T11:53:13.681Z,16.90
2019-04-03T11:54:13.790Z,15.80
2019-04-03T11:55:13.535Z,15.70
2019-04-03T11:56:14.156Z,14.30
2019-04-03T11:57:14.018Z,16.10
2019-04-03T11:58:13.600Z,16.80
2019-04-03T11:59:13.834Z,16.00
2019-04-03T12:00:13.486Z,14.00
2019-04-03T12:01:15.803Z,13.70
2019-04-03T12:02:13.909Z,13.20
2019-04-03T12:03:13.462Z,14.50
2019-04-03T12:04:13.916Z,13.80
2019-04-03T12:05:16.226Z,14.70
2019-04-03T12:06:15.848Z,15.20
2019-04-03T12:07:13.420Z,18.00
2019-04-03T12:08:13.693Z,15.00
2019-04-03T12:09:13.392Z,13.70
2019-04-03T12:10:13.525Z,14.70
2019-04-03T12:11:13.644Z,13.50
2019-04-03T12:12:13.366Z,15.00
2019-04-03T12:13:14.367Z,13.20
2019-04-03T12:14:14.810Z,14.70
2019-04-03T12:15:16.107Z,13.40
2019-04-03T12:16:13.323Z,15.00
2019-04-03T12:17:13.582Z,14.50
2019-04-03T12:18:13.307Z,15.60
2019-04-03T12:19:13.294Z,16.30
2019-04-03T12:20:15.298Z,17.20
2019-04-03T12:21:14.234Z,14.80
2019-04-03T12:22:13.263Z,13.40
2019-04-03T12:23:13.254Z,17.50
2019-04-03T12:24:13.252Z,15.30
2019-04-03T12:25:13.235Z,16.70
2019-04-03T12:26:13.238Z,15.10
2019-04-03T12:27:14.114Z,13.50
2019-04-03T12:28:13.203Z,15.70
2019-04-03T12:29:13.351Z,14.70
2019-04-03T12:30:13.185Z,15.10
2019-04-03T12:31:13.183Z,17.50
2019-04-03T12:32:13.161Z,17.60
2019-04-03T12:33:13.339Z,16.40
2019-04-03T12:34:13.140Z,16.20
2019-04-03T12:35:13.131Z,14.80
2019-04-03T12:36:14.336Z,14.00
2019-04-03T12:37:13.110Z,16.20
2019-04-03T12:38:13.533Z,15.60
2019-04-03T12:39:13.384Z,14.00
2019-04-03T12:40:13.086Z,17.20
2019-04-03T12:41:13.355Z,13.30
2019-04-03T12:42:13.067Z,13.10
2019-04-03T12:43:13.048Z,14.10
2019-04-03T12:44:13.416Z,14.00
2019-04-03T12:45:13.031Z,14.10
2019-04-03T12:46:13.048Z,15.40
2019-04-03T12:47:14.139Z,16.00
2019-04-03T12:48:13.176Z,14.00
2019-04-03T12:49:12.984Z,16.70
2019-04-03T12:50:13.506Z,17.10
2019-04-03T12:51:13.336Z,18.60
2019-04-03T12:52:13.198Z,18.30